Terminal Aerodrome Forecast
Issued by NWS

Home | Current Version | Previous Version | Text Only | Print | Product List | Glossary On
Versions: 1 2 3 4 5 6 7 8 9 10 11 12 13 14
000
FTUS41 KLWX 201100
TAFMTN
TAF
KMTN 201137Z 2012/2112 14005KT P6SM BKN050
     FM202200 14005KT P6SM VCTS BKN050CB
     FM210200 VRB03KT P6SM BKN050
     FM210800 VRB03KT P6SM SCT008 BKN015=

USA.gov is the U.S. government's official web portal to all federal, state and local government web resources and services.